createdAt,value
2022-10-11T00:00:24.000Z,0.00
2022-10-11T00:01:23.956Z,0.00
2022-10-11T00:02:26.394Z,0.00
2022-10-11T00:03:23.866Z,0.00
2022-10-11T00:04:23.857Z,0.00
2022-10-11T00:05:23.898Z,0.00
2022-10-11T00:06:23.835Z,0.00
2022-10-11T00:07:23.818Z,0.00
2022-10-11T00:08:23.979Z,0.00
2022-10-11T00:09:23.824Z,0.00
2022-10-11T00:10:23.843Z,0.00
2022-10-11T00:11:23.848Z,0.00
2022-10-11T00:12:23.828Z,0.00
2022-10-11T00:13:23.789Z,0.00
2022-10-11T00:14:23.871Z,0.00
2022-10-11T00:15:23.754Z,0.00
2022-10-11T00:16:23.812Z,0.00
2022-10-11T00:17:23.732Z,0.00
2022-10-11T00:18:23.724Z,0.00
2022-10-11T00:19:23.813Z,0.00
2022-10-11T00:20:23.737Z,0.00
2022-10-11T00:21:23.732Z,0.00
2022-10-11T00:22:23.716Z,0.00
2022-10-11T00:23:23.699Z,0.00
2022-10-11T00:24:23.651Z,0.00
2022-10-11T00:25:23.644Z,0.00
2022-10-11T00:26:23.719Z,0.00
2022-10-11T00:27:23.652Z,0.00
2022-10-11T00:28:23.704Z,0.00
2022-10-11T00:29:23.657Z,0.00
2022-10-11T00:30:23.721Z,0.00
2022-10-11T00:31:23.756Z,0.00
2022-10-11T00:32:23.634Z,0.00
2022-10-11T00:33:23.619Z,0.00
2022-10-11T00:34:23.582Z,0.00
2022-10-11T00:35:23.577Z,0.00
2022-10-11T00:36:23.557Z,0.00
2022-10-11T00:37:23.585Z,0.00
2022-10-11T00:38:23.570Z,0.00
2022-10-11T00:39:23.516Z,0.00
2022-10-11T00:40:23.512Z,0.00
2022-10-11T00:41:23.499Z,0.00
2022-10-11T00:42:23.555Z,0.00
2022-10-11T00:43:23.460Z,0.00
2022-10-11T00:44:23.604Z,0.00
2022-10-11T00:45:23.443Z,0.00
2022-10-11T00:46:23.430Z,0.00
2022-10-11T00:47:23.437Z,0.00
2022-10-11T00:48:23.427Z,0.00
2022-10-11T00:49:23.438Z,0.00
2022-10-11T00:50:23.428Z,0.00
2022-10-11T00:51:23.454Z,0.00
2022-10-11T00:52:23.410Z,0.00
2022-10-11T00:53:23.364Z,0.00
2022-10-11T00:54:23.366Z,0.00
2022-10-11T00:55:23.340Z,0.00
2022-10-11T00:56:23.322Z,0.00
2022-10-11T00:57:23.319Z,0.00
2022-10-11T00:58:23.396Z,0.00
2022-10-11T00:59:23.300Z,0.00
2022-10-11T01:00:23.307Z,0.00
2022-10-11T01:01:23.432Z,0.00
2022-10-11T01:02:23.265Z,0.00
2022-10-11T01:03:23.258Z,0.00
2022-10-11T01:04:23.295Z,0.00
2022-10-11T01:05:29.600Z,0.00
2022-10-11T01:06:23.232Z,0.00
2022-10-11T01:07:23.220Z,0.00
2022-10-11T01:08:23.318Z,0.00
2022-10-11T01:09:23.214Z,0.00
2022-10-11T01:10:23.317Z,0.00
2022-10-11T01:11:23.178Z,0.00
2022-10-11T01:12:23.258Z,0.00
2022-10-11T01:13:23.221Z,0.00
2022-10-11T01:14:23.138Z,0.00
2022-10-11T01:15:23.141Z,0.00
2022-10-11T01:16:23.187Z,0.00
2022-10-11T01:17:23.156Z,0.00
2022-10-11T01:18:23.119Z,0.00
2022-10-11T01:19:23.089Z,0.00
2022-10-11T01:20:23.095Z,0.00
2022-10-11T01:21:23.079Z,0.00
2022-10-11T01:22:23.130Z,0.00
2022-10-11T01:23:23.079Z,0.00
2022-10-11T01:24:23.048Z,0.00
2022-10-11T01:25:23.028Z,0.00
2022-10-11T01:26:23.089Z,0.00
2022-10-11T01:27:23.017Z,0.00
2022-10-11T01:28:23.115Z,0.00
2022-10-11T01:29:22.999Z,0.00
2022-10-11T01:30:23.043Z,0.00
2022-10-11T01:31:22.992Z,0.00
2022-10-11T01:32:22.966Z,0.00
2022-10-11T01:33:22.960Z,0.00
2022-10-11T01:34:22.961Z,0.00
2022-10-11T01:35:22.981Z,0.00
2022-10-11T01:36:22.963Z,0.00
2022-10-11T01:37:22.937Z,0.00
2022-10-11T01:38:22.895Z,0.00
2022-10-11T01:39:22.895Z,0.00
2022-10-11T01:40:23.047Z,0.00
2022-10-11T01:41:22.876Z,0.00
2022-10-11T01:42:22.893Z,0.00
2022-10-11T01:43:22.851Z,0.00
2022-10-11T01:44:22.832Z,0.00
2022-10-11T01:45:22.856Z,0.00
2022-10-11T01:46:22.872Z,0.00
2022-10-11T01:47:22.925Z,0.00
2022-10-11T01:48:22.869Z,0.00
2022-10-11T01:49:22.791Z,0.00
2022-10-11T01:50:22.775Z,0.00
2022-10-11T01:51:22.769Z,0.00
2022-10-11T01:52:22.811Z,0.00
2022-10-11T01:53:22.797Z,0.00
2022-10-11T01:54:22.825Z,0.00
2022-10-11T01:55:22.775Z,0.00
2022-10-11T01:56:22.705Z,0.00
2022-10-11T01:57:22.727Z,0.00
2022-10-11T01:58:22.735Z,0.00
2022-10-11T01:59:22.746Z,0.00
2022-10-11T02:00:22.706Z,0.00
2022-10-11T02:01:23.062Z,0.00
2022-10-11T02:02:22.664Z,0.00
2022-10-11T02:03:22.663Z,0.00
2022-10-11T02:04:22.660Z,0.00
2022-10-11T02:05:22.743Z,0.00
2022-10-11T02:06:22.622Z,0.00
2022-10-11T02:07:22.600Z,0.00
2022-10-11T02:08:22.604Z,0.00
2022-10-11T02:09:22.708Z,0.00
2022-10-11T02:10:22.707Z,0.00
2022-10-11T02:11:22.619Z,0.00
2022-10-11T02:12:22.580Z,0.00
2022-10-11T02:13:22.586Z,0.00
2022-10-11T02:14:22.549Z,0.00
2022-10-11T02:15:22.530Z,0.00
2022-10-11T02:16:22.616Z,0.00
2022-10-11T02:17:22.551Z,0.00
2022-10-11T02:18:22.524Z,0.00
2022-10-11T02:19:22.525Z,0.00
2022-10-11T02:20:22.506Z,0.00
2022-10-11T02:21:22.513Z,0.00
2022-10-11T02:22:22.446Z,0.00
2022-10-11T02:23:22.508Z,0.00
2022-10-11T02:24:22.485Z,0.00
2022-10-11T02:25:22.441Z,0.00
2022-10-11T02:26:22.474Z,0.00
2022-10-11T02:27:22.409Z,0.00
2022-10-11T02:28:22.398Z,0.00
2022-10-11T02:29:22.385Z,0.00
2022-10-11T02:30:22.459Z,0.00
2022-10-11T02:31:22.354Z,0.00
2022-10-11T02:32:22.409Z,0.00
2022-10-11T02:33:22.351Z,0.00
2022-10-11T02:34:22.326Z,0.00
2022-10-11T02:35:22.337Z,0.00
2022-10-11T02:36:22.314Z,0.00
2022-10-11T02:37:22.295Z,0.00
2022-10-11T02:38:22.556Z,0.00
2022-10-11T02:39:22.288Z,0.00
2022-10-11T02:40:22.348Z,0.00
2022-10-11T02:41:22.309Z,0.00
2022-10-11T02:42:22.279Z,0.00
2022-10-11T02:43:22.285Z,0.00
2022-10-11T02:44:22.233Z,0.00
2022-10-11T02:45:22.238Z,0.00
2022-10-11T02:46:22.241Z,0.00
2022-10-11T02:47:22.320Z,0.00
2022-10-11T02:48:22.220Z,0.00
2022-10-11T02:49:22.186Z,0.00
2022-10-11T02:50:22.168Z,0.00
2022-10-11T02:51:22.190Z,0.00
2022-10-11T02:52:22.191Z,0.00
2022-10-11T02:53:22.185Z,0.00
2022-10-11T02:54:22.179Z,0.00
2022-10-11T02:55:22.143Z,0.00
2022-10-11T02:56:22.123Z,0.00
2022-10-11T02:57:22.090Z,0.00
2022-10-11T02:58:22.072Z,0.00
2022-10-11T02:59:22.133Z,0.00
2022-10-11T03:00:22.110Z,0.00
2022-10-11T03:01:22.104Z,0.00
2022-10-11T03:02:22.038Z,0.00
2022-10-11T03:03:22.060Z,0.00
2022-10-11T03:04:22.115Z,0.00
2022-10-11T03:05:22.064Z,0.00
2022-10-11T03:06:22.047Z,0.00
2022-10-11T03:07:22.031Z,0.00
2022-10-11T03:08:22.010Z,0.00
2022-10-11T03:09:22.019Z,0.00
2022-10-11T03:10:21.963Z,0.00
2022-10-11T03:11:22.043Z,0.00
2022-10-11T03:12:21.967Z,0.00
2022-10-11T03:13:21.926Z,0.00
2022-10-11T03:14:21.955Z,0.00
2022-10-11T03:15:21.982Z,0.00
2022-10-11T03:16:21.892Z,0.00
2022-10-11T03:17:36.262Z,0.00
2022-10-11T03:18:21.912Z,0.00
2022-10-11T03:19:21.869Z,0.00
2022-10-11T03:20:21.901Z,0.00
2022-10-11T03:21:21.927Z,0.00
2022-10-11T03:22:21.879Z,0.00
2022-10-11T03:23:21.824Z,0.00
2022-10-11T03:24:21.836Z,0.00
2022-10-11T03:25:21.869Z,0.00
2022-10-11T03:26:21.805Z,0.00
2022-10-11T03:27:21.801Z,0.00
2022-10-11T03:28:21.970Z,0.00
2022-10-11T03:29:21.766Z,0.00
2022-10-11T03:30:21.797Z,0.00
2022-10-11T03:31:21.753Z,0.00
2022-10-11T03:32:21.788Z,0.00
2022-10-11T03:33:21.742Z,0.00
2022-10-11T03:34:21.763Z,0.00
2022-10-11T03:35:21.707Z,0.00
2022-10-11T03:36:21.728Z,0.00
2022-10-11T03:37:21.732Z,0.00
2022-10-11T03:38:21.672Z,0.00
2022-10-11T03:39:21.709Z,0.00
2022-10-11T03:40:21.719Z,0.00
2022-10-11T03:41:21.639Z,0.00
2022-10-11T03:42:21.625Z,0.00
2022-10-11T03:43:21.733Z,0.00
2022-10-11T03:44:21.613Z,0.00
2022-10-11T03:45:21.638Z,0.00
2022-10-11T03:46:21.636Z,0.00
2022-10-11T03:47:21.655Z,0.00
2022-10-11T03:48:21.584Z,0.00
2022-10-11T03:49:21.589Z,0.00
2022-10-11T03:50:21.569Z,0.00
2022-10-11T03:51:21.590Z,0.00
2022-10-11T03:52:21.564Z,0.00
2022-10-11T03:53:21.583Z,0.00
2022-10-11T03:54:21.554Z,0.00
2022-10-11T03:55:21.508Z,0.00
2022-10-11T03:56:21.526Z,0.00
2022-10-11T03:57:21.529Z,0.00
2022-10-11T03:58:21.532Z,0.00
2022-10-11T03:59:21.574Z,0.00
2022-10-11T04:00:21.460Z,0.00
2022-10-11T04:01:21.534Z,0.00
2022-10-11T04:02:21.426Z,0.00
2022-10-11T04:03:21.485Z,0.00
2022-10-11T04:04:21.463Z,0.00
2022-10-11T04:05:21.472Z,0.00
2022-10-11T04:06:21.426Z,0.00
2022-10-11T04:07:21.409Z,0.00
2022-10-11T04:08:21.391Z,0.00
2022-10-11T04:09:21.401Z,0.00
2022-10-11T04:10:21.412Z,0.00
2022-10-11T04:11:21.406Z,0.00
2022-10-11T04:12:21.321Z,0.00
2022-10-11T04:13:21.324Z,0.00
2022-10-11T04:14:21.318Z,0.00
2022-10-11T04:15:21.323Z,0.00
2022-10-11T04:16:21.287Z,0.00
2022-10-11T04:17:21.331Z,0.00
2022-10-11T04:18:21.425Z,0.00
2022-10-11T04:19:21.257Z,0.00
2022-10-11T04:20:21.397Z,0.00
2022-10-11T04:21:21.253Z,0.00
2022-10-11T04:22:21.235Z,0.00
2022-10-11T04:23:21.316Z,0.00
2022-10-11T04:24:21.227Z,0.00
2022-10-11T04:25:21.207Z,0.00
2022-10-11T04:26:21.266Z,0.00
2022-10-11T04:27:21.173Z,0.00
2022-10-11T04:28:21.264Z,0.00
2022-10-11T04:29:21.170Z,0.00
2022-10-11T04:30:21.190Z,0.00
2022-10-11T04:31:21.190Z,0.00
2022-10-11T04:32:21.140Z,0.00
2022-10-11T04:33:21.112Z,0.00
2022-10-11T04:34:21.191Z,0.00
2022-10-11T04:35:21.128Z,0.00
2022-10-11T04:36:21.136Z,0.00
2022-10-11T04:37:21.079Z,0.00
2022-10-11T04:38:21.072Z,0.00
2022-10-11T04:39:21.054Z,0.00
2022-10-11T04:40:21.111Z,0.00
2022-10-11T04:41:21.160Z,0.00
2022-10-11T04:42:21.042Z,0.00
2022-10-11T04:43:21.020Z,0.00
2022-10-11T04:44:21.060Z,0.00
2022-10-11T04:45:21.045Z,0.00
2022-10-11T04:46:20.979Z,0.00
2022-10-11T04:47:21.050Z,0.00
2022-10-11T04:48:20.997Z,0.00
2022-10-11T04:49:20.958Z,0.00
2022-10-11T04:50:21.225Z,0.00
2022-10-11T04:51:20.969Z,0.00
2022-10-11T04:52:25.412Z,0.00
2022-10-11T04:53:20.962Z,0.00
2022-10-11T04:54:20.926Z,0.00
2022-10-11T04:55:20.954Z,0.00
2022-10-11T04:56:20.895Z,1.00
2022-10-11T04:57:20.871Z,0.00
2022-10-11T04:58:20.871Z,0.00
2022-10-11T04:59:20.982Z,0.00
2022-10-11T05:00:20.885Z,0.00
2022-10-11T05:01:20.802Z,1.00
2022-10-11T05:02:20.926Z,0.00
2022-10-11T05:03:20.807Z,0.00
2022-10-11T05:04:20.833Z,2.00
2022-10-11T05:05:20.796Z,1.00
2022-10-11T05:06:20.734Z,1.00
2022-10-11T05:07:20.777Z,0.00
2022-10-11T05:08:20.720Z,1.00
2022-10-11T05:09:20.698Z,1.00
2022-10-11T05:10:20.762Z,3.00
2022-10-11T05:11:20.729Z,4.00
2022-10-11T05:12:20.774Z,8.00
2022-10-11T05:13:20.661Z,7.00
2022-10-11T05:14:20.649Z,7.00
2022-10-11T05:15:20.645Z,7.00
2022-10-11T05:16:20.621Z,7.00
2022-10-11T05:17:20.694Z,9.00
2022-10-11T05:18:20.714Z,15.00
2022-10-11T05:19:20.605Z,14.00
2022-10-11T05:20:20.625Z,13.00
2022-10-11T05:21:20.593Z,15.00
2022-10-11T05:22:20.573Z,17.00
2022-10-11T05:23:20.579Z,25.00
2022-10-11T05:24:20.576Z,33.00
2022-10-11T05:25:20.543Z,31.00
2022-10-11T05:26:20.614Z,31.00
2022-10-11T05:27:20.514Z,37.00
2022-10-11T05:28:20.557Z,49.00
2022-10-11T05:29:20.538Z,65.00
2022-10-11T05:30:20.527Z,72.00
2022-10-11T05:31:20.539Z,74.00
2022-10-11T05:32:20.470Z,86.00
2022-10-11T05:33:20.452Z,100.00
2022-10-11T05:34:20.503Z,119.00
2022-10-11T05:35:20.461Z,143.00
2022-10-11T05:36:20.469Z,157.00
2022-10-11T05:37:20.422Z,164.00
2022-10-11T05:38:20.425Z,192.00
2022-10-11T05:39:20.394Z,194.00
2022-10-11T05:40:20.435Z,226.00
2022-10-11T05:41:20.441Z,291.00
2022-10-11T05:42:20.367Z,342.00
2022-10-11T05:43:20.401Z,314.00
2022-10-11T05:44:20.384Z,315.00
2022-10-11T05:45:20.328Z,315.00
2022-10-11T05:46:20.331Z,356.00
2022-10-11T05:47:20.378Z,454.00
2022-10-11T05:48:20.350Z,533.00
2022-10-11T05:49:20.298Z,517.00
2022-10-11T05:50:24.097Z,557.00
2022-10-11T05:51:20.269Z,611.00
2022-10-11T05:52:20.382Z,603.00
2022-10-11T05:53:20.303Z,629.00
2022-10-11T05:54:20.399Z,659.00
2022-10-11T05:55:20.238Z,657.00
2022-10-11T05:56:20.244Z,732.00
2022-10-11T05:57:20.201Z,810.00
2022-10-11T05:58:20.276Z,841.00
2022-10-11T05:59:20.194Z,869.00
2022-10-11T06:00:20.183Z,953.00
2022-10-11T06:01:20.260Z,1005.00
2022-10-11T06:02:20.219Z,1012.00
2022-10-11T06:03:20.206Z,1016.00
2022-10-11T06:04:20.146Z,1016.00
2022-10-11T06:05:20.125Z,955.00
2022-10-11T06:06:20.213Z,908.00
2022-10-11T06:07:20.110Z,1106.00
2022-10-11T06:08:20.098Z,1192.00
2022-10-11T06:09:20.160Z,1367.00
2022-10-11T06:10:20.076Z,1442.00
2022-10-11T06:11:20.069Z,1558.00
2022-10-11T06:12:20.098Z,1639.00
2022-10-11T06:13:20.132Z,1851.00
2022-10-11T06:14:20.119Z,1866.00
2022-10-11T06:15:20.022Z,1925.00
2022-10-11T06:16:20.032Z,1978.00
2022-10-11T06:17:20.094Z,1834.00
2022-10-11T06:18:19.992Z,1681.00
2022-10-11T06:19:20.060Z,1737.00
2022-10-11T06:20:19.975Z,1795.00
2022-10-11T06:21:19.971Z,1826.00
2022-10-11T06:22:20.057Z,1818.00
2022-10-11T06:23:19.962Z,1693.00
2022-10-11T06:24:19.988Z,1509.00
2022-10-11T06:25:19.926Z,1446.00
2022-10-11T06:26:19.917Z,1420.00
2022-10-11T06:27:20.019Z,1465.00
2022-10-11T06:28:19.976Z,1613.00
2022-10-11T06:29:19.878Z,1673.00
2022-10-11T06:30:19.880Z,1565.00
2022-10-11T06:31:19.857Z,1644.00
2022-10-11T06:32:19.920Z,1705.00
2022-10-11T06:33:19.835Z,1890.00
2022-10-11T06:34:19.883Z,1914.00
2022-10-11T06:35:19.906Z,1775.00
2022-10-11T06:36:19.809Z,1724.00
2022-10-11T06:37:19.798Z,1837.00
2022-10-11T06:38:19.809Z,1909.00
2022-10-11T06:39:19.781Z,1903.00
2022-10-11T06:40:19.772Z,1750.00
2022-10-11T06:41:19.816Z,1587.00
2022-10-11T06:42:19.885Z,1520.00
2022-10-11T06:43:19.745Z,1580.00
2022-10-11T06:44:19.806Z,1677.00
2022-10-11T06:45:19.731Z,1871.00
2022-10-11T06:46:19.707Z,2242.00
2022-10-11T06:47:19.780Z,2493.00
2022-10-11T06:48:19.694Z,2423.00
2022-10-11T06:49:23.345Z,2581.00
2022-10-11T06:50:34.865Z,2523.00
2022-10-11T06:51:19.689Z,2543.00
2022-10-11T06:52:19.766Z,2490.00
2022-10-11T06:53:19.659Z,2434.00
2022-10-11T06:54:19.680Z,2456.00
2022-10-11T06:55:19.711Z,2202.00
2022-10-11T06:56:19.623Z,1951.00
2022-10-11T06:57:19.607Z,2062.00
2022-10-11T06:58:19.657Z,2535.00
2022-10-11T06:59:19.617Z,2940.00
2022-10-11T07:00:19.630Z,3121.00
2022-10-11T07:01:19.646Z,3170.00
2022-10-11T07:02:19.739Z,3282.00
2022-10-11T07:03:19.533Z,3302.00
2022-10-11T07:04:19.528Z,3354.00
2022-10-11T07:05:19.512Z,3406.00
2022-10-11T07:06:19.508Z,3355.00
2022-10-11T07:07:19.527Z,3400.00
2022-10-11T07:08:19.533Z,3469.00
2022-10-11T07:09:19.471Z,3570.00
2022-10-11T07:10:19.571Z,3575.00
2022-10-11T07:11:19.479Z,3457.00
2022-10-11T07:12:19.448Z,3384.00
2022-10-11T07:13:19.458Z,3616.00
2022-10-11T07:14:19.426Z,3741.00
2022-10-11T07:15:19.413Z,4051.00
2022-10-11T07:16:19.543Z,4463.00
2022-10-11T07:17:19.391Z,4810.00
2022-10-11T07:18:19.433Z,4823.00
2022-10-11T07:19:19.473Z,4700.00
2022-10-11T07:20:19.359Z,4541.00
2022-10-11T07:21:19.416Z,4214.00
2022-10-11T07:22:19.339Z,3918.00
2022-10-11T07:23:19.348Z,3805.00
2022-10-11T07:24:19.420Z,3592.00
2022-10-11T07:25:19.337Z,3369.00
2022-10-11T07:26:19.310Z,3251.00
2022-10-11T07:27:19.414Z,3066.00
2022-10-11T07:28:19.296Z,2971.00
2022-10-11T07:29:19.345Z,2833.00
2022-10-11T07:30:19.302Z,2626.00
2022-10-11T07:31:19.406Z,2347.00
2022-10-11T07:32:19.316Z,2209.00
2022-10-11T07:33:19.232Z,2615.00
2022-10-11T07:34:19.279Z,3072.00
2022-10-11T07:35:19.253Z,3189.00
2022-10-11T07:36:19.257Z,3266.00
2022-10-11T07:37:19.293Z,3193.00
2022-10-11T07:38:19.192Z,3031.00
2022-10-11T07:39:19.162Z,3144.00
2022-10-11T07:40:19.255Z,3205.00
2022-10-11T07:41:19.190Z,3234.00
2022-10-11T07:42:19.143Z,3677.00
2022-10-11T07:43:19.229Z,4221.00
2022-10-11T07:44:19.116Z,4455.00
2022-10-11T07:45:19.105Z,4568.00
2022-10-11T07:46:19.098Z,4945.00
2022-10-11T07:47:19.083Z,5208.00
2022-10-11T07:48:19.137Z,5557.00
2022-10-11T07:49:19.125Z,5849.00
2022-10-11T07:50:19.084Z,5732.00
2022-10-11T07:51:19.108Z,5774.00
2022-10-11T07:52:19.051Z,5633.00
2022-10-11T07:53:19.038Z,5914.00
2022-10-11T07:54:19.015Z,5777.00
2022-10-11T07:55:19.117Z,5799.00
2022-10-11T07:56:19.040Z,5737.00
2022-10-11T07:57:19.032Z,6047.00
2022-10-11T07:58:18.986Z,6795.00
2022-10-11T07:59:18.988Z,7238.00
2022-10-11T08:00:19.078Z,7772.00
2022-10-11T08:01:19.046Z,8135.00
2022-10-11T08:02:18.938Z,8535.00
2022-10-11T08:03:18.949Z,9562.00
2022-10-11T08:04:18.928Z,10309.00
2022-10-11T08:05:18.893Z,11056.00
2022-10-11T08:06:18.971Z,11719.00
2022-10-11T08:07:18.948Z,11915.00
2022-10-11T08:08:18.880Z,11457.00
2022-10-11T08:09:18.860Z,4613.00
2022-10-11T08:10:18.859Z,17948.00
2022-10-11T08:11:18.857Z,20666.00
2022-10-11T08:12:18.837Z,21356.00
2022-10-11T08:13:19.043Z,27620.00
2022-10-11T08:14:18.809Z,25742.00
2022-10-11T08:15:18.800Z,21684.00
2022-10-11T08:16:18.790Z,24227.00
2022-10-11T08:17:18.778Z,24801.00
2022-10-11T08:18:18.779Z,25580.00
2022-10-11T08:19:18.797Z,24640.00
2022-10-11T08:20:18.825Z,16952.00
2022-10-11T08:21:18.799Z,16972.00
2022-10-11T08:22:18.781Z,16451.00
2022-10-11T08:23:18.744Z,12965.00
2022-10-11T08:24:18.757Z,12046.00
2022-10-11T08:25:18.769Z,10590.00
2022-10-11T08:26:18.705Z,10386.00
2022-10-11T08:27:18.795Z,9762.00
2022-10-11T08:28:18.862Z,9820.00
2022-10-11T08:29:18.698Z,10088.00
2022-10-11T08:30:18.690Z,10687.00
2022-10-11T08:31:18.656Z,12400.00
2022-10-11T08:32:18.644Z,13718.00
2022-10-11T08:33:18.675Z,13396.00
2022-10-11T08:34:18.608Z,14128.00
2022-10-11T08:35:18.646Z,14121.00
2022-10-11T08:36:18.587Z,15312.00
2022-10-11T08:37:18.689Z,21624.00
2022-10-11T08:38:18.566Z,20606.00
2022-10-11T08:39:18.593Z,16240.00
2022-10-11T08:40:18.553Z,13465.00
2022-10-11T08:41:18.541Z,12008.00
2022-10-11T08:42:18.572Z,11185.00
2022-10-11T08:43:18.568Z,10400.00
2022-10-11T08:44:18.553Z,10489.00
2022-10-11T08:45:18.517Z,10841.00
2022-10-11T08:46:18.490Z,10653.00
2022-10-11T08:47:18.477Z,10949.00
2022-10-11T08:48:18.506Z,10992.00
2022-10-11T08:49:18.468Z,10131.00
2022-10-11T08:50:18.454Z,9763.00
2022-10-11T08:51:18.439Z,9314.00
2022-10-11T08:52:18.548Z,14580.00
2022-10-11T08:53:18.437Z,12814.00
2022-10-11T08:54:18.470Z,23867.00
2022-10-11T08:55:18.393Z,21018.00
2022-10-11T08:56:18.458Z,20556.00
2022-10-11T08:57:18.371Z,22542.00
2022-10-11T08:58:18.376Z,27465.00
2022-10-11T08:59:18.406Z,30032.00
2022-10-11T09:00:18.421Z,23912.00
2022-10-11T09:01:18.495Z,29098.00
2022-10-11T09:02:18.379Z,29573.00
2022-10-11T09:03:18.301Z,31046.00
2022-10-11T09:04:18.311Z,29255.00
2022-10-11T09:05:18.348Z,19668.00
2022-10-11T09:06:18.284Z,32846.00
2022-10-11T09:07:18.330Z,25720.00
2022-10-11T09:08:18.283Z,25515.00
2022-10-11T09:09:18.246Z,17763.00
2022-10-11T09:10:18.252Z,31824.00
2022-10-11T09:11:18.264Z,34133.00
2022-10-11T09:12:18.235Z,34066.00
2022-10-11T09:13:18.269Z,27429.00
2022-10-11T09:14:18.282Z,21477.00
2022-10-11T09:15:18.197Z,28735.00
2022-10-11T09:16:18.300Z,28042.00
2022-10-11T09:17:18.214Z,34119.00
2022-10-11T09:18:18.199Z,31605.00
2022-10-11T09:19:18.148Z,35164.00
2022-10-11T09:20:18.133Z,20785.00
2022-10-11T09:21:18.193Z,6650.00
2022-10-11T09:22:18.157Z,36115.00
2022-10-11T09:23:18.162Z,21345.00
2022-10-11T09:24:18.175Z,19714.00
2022-10-11T09:25:18.107Z,15689.00
2022-10-11T09:26:18.085Z,13943.00
2022-10-11T09:27:18.186Z,14392.00
2022-10-11T09:28:18.103Z,13684.00
2022-10-11T09:29:18.049Z,12369.00
2022-10-11T09:30:18.085Z,11854.00
2022-10-11T09:31:18.050Z,12112.00
2022-10-11T09:32:18.111Z,12193.00
2022-10-11T09:33:18.038Z,11661.00
2022-10-11T09:34:17.990Z,11329.00
2022-10-11T09:35:17.981Z,10812.00
2022-10-11T09:36:18.071Z,11387.00
2022-10-11T09:37:18.058Z,12319.00
2022-10-11T09:38:17.958Z,12490.00
2022-10-11T09:39:17.983Z,12131.00
2022-10-11T09:40:17.924Z,11177.00
2022-10-11T09:41:17.917Z,10511.00
2022-10-11T09:42:17.960Z,11357.00
2022-10-11T09:43:17.922Z,12056.00
2022-10-11T09:44:17.908Z,10953.00
2022-10-11T09:45:17.907Z,9440.00
2022-10-11T09:46:17.884Z,9540.00
2022-10-11T09:47:17.956Z,9926.00
2022-10-11T09:48:17.972Z,9576.00
2022-10-11T09:49:17.888Z,10222.00
2022-10-11T09:50:17.899Z,10236.00
2022-10-11T09:51:17.818Z,9758.00
2022-10-11T09:52:17.869Z,9323.00
2022-10-11T09:53:17.845Z,9138.00
2022-10-11T09:54:17.799Z,9689.00
2022-10-11T09:55:19.793Z,9341.00
2022-10-11T09:56:17.813Z,11560.00
2022-10-11T09:57:18.012Z,13398.00
2022-10-11T09:58:17.788Z,12891.00
2022-10-11T09:59:17.781Z,12525.00
2022-10-11T10:00:17.839Z,12650.00
2022-10-11T10:01:17.750Z,13120.00
2022-10-11T10:02:17.753Z,13240.00
2022-10-11T10:03:17.729Z,13593.00
2022-10-11T10:04:17.677Z,13801.00
2022-10-11T10:05:17.682Z,14299.00
2022-10-11T10:06:17.695Z,14434.00
2022-10-11T10:07:17.731Z,14857.00
2022-10-11T10:08:17.704Z,15531.00
2022-10-11T10:09:17.631Z,13876.00
2022-10-11T10:10:17.724Z,10512.00
2022-10-11T10:11:17.626Z,8009.00
2022-10-11T10:12:17.617Z,6215.00
2022-10-11T10:13:17.593Z,5691.00
2022-10-11T10:14:17.611Z,5169.00
2022-10-11T10:15:17.600Z,4891.00
2022-10-11T10:16:17.562Z,4930.00
2022-10-11T10:17:17.564Z,5897.00
2022-10-11T10:18:17.601Z,6726.00
2022-10-11T10:19:17.549Z,6162.00
2022-10-11T10:20:17.534Z,5090.00
2022-10-11T10:21:17.564Z,5139.00
2022-10-11T10:22:17.519Z,5178.00
2022-10-11T10:23:17.510Z,4915.00
2022-10-11T10:24:17.495Z,4592.00
2022-10-11T10:25:17.472Z,4360.00
2022-10-11T10:26:17.453Z,4138.00
2022-10-11T10:27:17.521Z,4073.00
2022-10-11T10:28:17.502Z,4408.00
2022-10-11T10:29:17.438Z,4748.00
2022-10-11T10:30:17.480Z,4718.00
2022-10-11T10:31:17.406Z,4471.00
2022-10-11T10:32:17.395Z,4200.00
2022-10-11T10:33:17.456Z,4300.00
2022-10-11T10:34:17.400Z,4653.00
2022-10-11T10:35:17.365Z,4849.00
2022-10-11T10:36:17.384Z,5170.00
2022-10-11T10:37:17.346Z,5562.00
2022-10-11T10:38:17.370Z,5659.00
2022-10-11T10:39:17.335Z,5778.00
2022-10-11T10:40:17.321Z,6291.00
2022-10-11T10:41:17.321Z,6875.00
2022-10-11T10:42:17.404Z,7270.00
2022-10-11T10:43:17.309Z,7297.00
2022-10-11T10:44:17.372Z,6848.00
2022-10-11T10:45:21.099Z,7101.00
2022-10-11T10:46:17.254Z,7620.00
2022-10-11T10:47:17.256Z,7883.00
2022-10-11T10:48:17.267Z,7362.00
2022-10-11T10:49:51.971Z,7217.00
2022-10-11T10:50:17.213Z,7563.00
2022-10-11T10:51:17.208Z,7593.00
2022-10-11T10:52:17.193Z,7485.00
2022-10-11T10:53:17.251Z,7484.00
2022-10-11T10:54:17.183Z,7301.00
2022-10-11T10:55:17.301Z,7234.00
2022-10-11T10:56:17.405Z,7363.00
2022-10-11T10:57:17.154Z,7676.00
2022-10-11T10:58:18.878Z,8011.00
2022-10-11T10:59:17.225Z,8487.00
2022-10-11T11:00:17.179Z,8559.00
2022-10-11T11:01:17.271Z,8165.00
2022-10-11T11:02:38.941Z,7688.00
2022-10-11T11:03:17.174Z,7492.00
2022-10-11T11:16:42.120Z,7597.00
2022-10-11T11:17:43.055Z,7818.00
2022-10-11T11:18:43.054Z,7367.00
2022-10-11T11:19:42.994Z,6954.00
2022-10-11T11:20:43.118Z,6928.00
2022-10-11T11:21:43.016Z,7077.00
2022-10-11T11:22:42.976Z,7300.00
2022-10-11T11:23:42.960Z,7667.00
2022-10-11T11:24:43.006Z,7996.00
2022-10-11T11:25:45.048Z,8180.00
2022-10-11T11:26:44.432Z,8232.00
2022-10-11T11:27:42.928Z,8504.00
2022-10-11T11:28:42.942Z,8877.00
2022-10-11T11:29:42.949Z,9081.00
2022-10-11T11:30:42.912Z,9188.00
2022-10-11T11:31:42.877Z,8986.00
2022-10-11T11:32:45.675Z,8920.00
2022-10-11T11:33:48.530Z,8601.00
2022-10-11T11:34:42.899Z,8395.00
2022-10-11T11:35:42.835Z,8512.00
2022-10-11T11:36:42.830Z,8584.00
2022-10-11T11:37:42.817Z,9503.00
2022-10-11T11:38:42.805Z,10176.00
2022-10-11T11:39:42.835Z,10136.00
2022-10-11T11:40:42.839Z,10215.00
2022-10-11T11:41:42.836Z,10160.00
2022-10-11T11:42:42.769Z,10432.00
2022-10-11T11:43:42.761Z,10369.00
2022-10-11T11:44:42.742Z,10624.00
2022-10-11T11:45:42.792Z,11493.00
2022-10-11T11:46:42.727Z,12891.00
2022-10-11T11:47:42.826Z,13742.00
2022-10-11T11:48:42.734Z,13794.00
2022-10-11T11:50:42.686Z,12977.00
2022-10-11T11:51:42.694Z,12971.00
2022-10-11T11:52:42.718Z,13173.00
2022-10-11T11:53:42.654Z,13658.00
2022-10-11T11:54:42.649Z,14346.00
2022-10-11T11:55:42.645Z,14901.00
2022-10-11T11:56:42.627Z,14928.00
2022-10-11T11:57:42.639Z,14037.00
2022-10-11T11:58:42.643Z,13742.00
2022-10-11T11:59:42.607Z,14293.00
2022-10-11T12:00:42.595Z,14201.00
2022-10-11T12:01:42.678Z,14489.00
2022-10-11T12:02:42.632Z,13945.00
2022-10-11T12:03:42.573Z,14148.00
2022-10-11T12:04:42.543Z,15170.00
2022-10-11T12:05:42.544Z,16462.00
2022-10-11T12:07:04.068Z,17042.00
2022-10-11T12:07:42.524Z,17825.00
2022-10-11T12:08:42.593Z,19127.00
2022-10-11T12:09:42.576Z,19380.00
2022-10-11T12:10:42.891Z,19066.00
2022-10-11T12:11:42.543Z,18770.00
2022-10-11T12:12:43.314Z,17596.00
2022-10-11T12:13:42.535Z,17289.00
2022-10-11T12:14:42.452Z,17252.00
2022-10-11T12:15:42.507Z,16745.00
2022-10-11T12:16:42.429Z,15696.00
2022-10-11T12:17:42.439Z,15699.00
2022-10-11T12:18:42.793Z,15431.00
2022-10-11T12:19:42.428Z,15776.00
2022-10-11T12:20:42.391Z,16447.00
2022-10-11T12:21:42.428Z,16516.00
2022-10-11T12:22:42.426Z,16911.00
2022-10-11T12:23:42.361Z,17099.00
2022-10-11T12:24:42.373Z,17258.00
2022-10-11T12:25:42.339Z,16498.00
2022-10-11T12:26:42.321Z,15842.00
2022-10-11T12:27:42.321Z,14629.00
2022-10-11T12:28:42.425Z,16128.00
2022-10-11T12:29:42.337Z,14608.00
2022-10-11T12:30:42.312Z,13378.00
2022-10-11T12:31:45.949Z,13140.00
2022-10-11T12:32:42.272Z,13328.00
2022-10-11T12:33:42.268Z,13399.00
2022-10-11T12:34:42.709Z,13540.00
2022-10-11T12:35:42.236Z,14246.00
2022-10-11T12:36:42.277Z,13704.00
2022-10-11T12:37:42.207Z,12655.00
2022-10-11T12:38:42.205Z,11744.00
2022-10-11T12:39:42.207Z,11612.00
2022-10-11T12:40:42.240Z,10827.00
2022-10-11T12:41:42.186Z,9786.00
2022-10-11T12:42:42.224Z,8999.00
2022-10-11T12:43:42.205Z,9311.00
2022-10-11T12:44:42.352Z,9618.00